KVEL/VEL METAR and TAF weather

Enter ICAO airport designator
Station Type Date Time Source
KVEL METAR 2021/10/20 05:53 UTC NOAA

KVEL 200553Z AUTO 30004KT 10SM CLR 01/M01 A3025 RMK AO2 SLP257 T00111006 10056 20006 51010


Station Type Date Time Source
KVEL Decoded METAR 2021/10/20 05:53 UTC NOAA

VERNAL AIRPORT, UT, United States (KVEL) 40-26N 109-30W 1604M
Oct 20, 2021 - 01:53 AM EDT / 2021.10.20 0553 UTC
Wind: from the WNW (300 degrees) at 5 MPH (4 KT):0
Visibility: 10 mile(s):0
Sky conditions: clear
Temperature: 34.0 F (1.1 C)
Windchill: 30 F (-1 C):1
Dew Point: 30.9 F (-0.6 C)
Relative Humidity: 88%
Pressure (altimeter): 30.25 in. Hg (1024 hPa)
Pressure tendency: 0.03 inches (1.0 hPa) higher than three hours ago
ob: KVEL 200553Z AUTO 30004KT 10SM CLR 01/M01 A3025 RMK AO2 SLP257 T00111006 10056 20006 51010
cycle: 6

Station Type Date Time Source
KVEL TAF 2021/10/20 06:30 UTC NOAA

TAF KVEL 200527Z 2006/2106 28007KT P6SM FEW045 FEW150
FM201200 VRB04KT P6SM FEW050 SCT060
FM201800 16007KT P6SM FEW050 SCT080
FM210100 28005KT P6SM SCT050

Example: see airport list